sensor_id;sensor_type;location;lat;lon;timestamp;temperature;humidity
46336;DHT22;31365;48.858;8.530;2023-08-08T00:02:20;15.40;99.90
46336;DHT22;31365;48.858;8.530;2023-08-08T00:04:49;15.40;99.90
46336;DHT22;31365;48.858;8.530;2023-08-08T00:07:17;15.40;99.90
46336;DHT22;31365;48.858;8.530;2023-08-08T00:09:46;15.40;99.90
46336;DHT22;31365;48.858;8.530;2023-08-08T00:12:14;15.40;99.90
46336;DHT22;31365;48.858;8.530;2023-08-08T00:14:43;15.40;99.90
46336;DHT22;31365;48.858;8.530;2023-08-08T00:17:11;15.40;99.90
46336;DHT22;31365;48.858;8.530;2023-08-08T00:19:41;15.40;99.90
46336;DHT22;31365;48.858;8.530;2023-08-08T00:22:09;15.40;99.90
46336;DHT22;31365;48.858;8.530;2023-08-08T00:24:38;15.40;99.90
46336;DHT22;31365;48.858;8.530;2023-08-08T00:27:06;15.40;99.90
46336;DHT22;31365;48.858;8.530;2023-08-08T00:29:35;15.30;99.90
46336;DHT22;31365;48.858;8.530;2023-08-08T00:32:04;15.30;99.90
46336;DHT22;31365;48.858;8.530;2023-08-08T00:34:32;15.30;99.90
46336;DHT22;31365;48.858;8.530;2023-08-08T00:37:03;15.40;99.90
46336;DHT22;31365;48.858;8.530;2023-08-08T00:39:33;15.40;99.90
46336;DHT22;31365;48.858;8.530;2023-08-08T00:42:01;15.30;99.90
46336;DHT22;31365;48.858;8.530;2023-08-08T00:44:30;15.30;99.90
46336;DHT22;31365;48.858;8.530;2023-08-08T00:46:59;15.40;99.90
46336;DHT22;31365;48.858;8.530;2023-08-08T00:49:28;15.40;99.90
46336;DHT22;31365;48.858;8.530;2023-08-08T00:51:56;15.40;99.90
46336;DHT22;31365;48.858;8.530;2023-08-08T00:54:28;15.40;99.90
46336;DHT22;31365;48.858;8.530;2023-08-08T00:56:56;15.40;99.90
46336;DHT22;31365;48.858;8.530;2023-08-08T00:59:25;15.40;99.90
46336;DHT22;31365;48.858;8.530;2023-08-08T01:01:53;15.40;99.90
46336;DHT22;31365;48.858;8.530;2023-08-08T01:04:22;15.40;99.90
46336;DHT22;31365;48.858;8.530;2023-08-08T01:07:00;15.50;99.90
46336;DHT22;31365;48.858;8.530;2023-08-08T01:09:41;15.50;99.90
46336;DHT22;31365;48.858;8.530;2023-08-08T01:12:13;15.40;99.90
46336;DHT22;31365;48.858;8.530;2023-08-08T01:14:43;15.50;99.90
46336;DHT22;31365;48.858;8.530;2023-08-08T01:17:12;15.50;99.90
46336;DHT22;31365;48.858;8.530;2023-08-08T01:19:42;15.40;99.90
46336;DHT22;31365;48.858;8.530;2023-08-08T01:22:16;15.40;99.90
46336;DHT22;31365;48.858;8.530;2023-08-08T01:24:54;15.40;99.90
46336;DHT22;31365;48.858;8.530;2023-08-08T01:27:24;15.40;99.90
46336;DHT22;31365;48.858;8.530;2023-08-08T01:29:53;15.40;99.90
46336;DHT22;31365;48.858;8.530;2023-08-08T01:32:21;15.40;99.90
46336;DHT22;31365;48.858;8.530;2023-08-08T01:34:50;15.40;99.90
46336;DHT22;31365;48.858;8.530;2023-08-08T01:37:22;15.40;99.90
46336;DHT22;31365;48.858;8.530;2023-08-08T01:39:59;15.40;99.90
46336;DHT22;31365;48.858;8.530;2023-08-08T01:42:30;15.40;99.90
46336;DHT22;31365;48.858;8.530;2023-08-08T01:44:59;15.40;99.90
46336;DHT22;31365;48.858;8.530;2023-08-08T01:47:28;15.40;99.90
46336;DHT22;31365;48.858;8.530;2023-08-08T01:49:56;15.40;99.90
46336;DHT22;31365;48.858;8.530;2023-08-08T01:52:25;15.40;99.90
46336;DHT22;31365;48.858;8.530;2023-08-08T01:54:53;15.40;99.90
46336;DHT22;31365;48.858;8.530;2023-08-08T01:57:23;15.40;99.90
46336;DHT22;31365;48.858;8.530;2023-08-08T01:59:51;15.40;99.90
46336;DHT22;31365;48.858;8.530;2023-08-08T02:02:19;15.40;99.90
46336;DHT22;31365;48.858;8.530;2023-08-08T02:04:48;15.40;99.90
46336;DHT22;31365;48.858;8.530;2023-08-08T02:07:17;15.40;99.90
46336;DHT22;31365;48.858;8.530;2023-08-08T02:09:45;15.40;99.90
46336;DHT22;31365;48.858;8.530;2023-08-08T02:12:13;15.40;99.90
46336;DHT22;31365;48.858;8.530;2023-08-08T02:14:43;15.40;99.90
46336;DHT22;31365;48.858;8.530;2023-08-08T02:17:11;15.30;99.90
46336;DHT22;31365;48.858;8.530;2023-08-08T02:19:40;15.30;99.90
46336;DHT22;31365;48.858;8.530;2023-08-08T02:22:09;15.30;99.90
46336;DHT22;31365;48.858;8.530;2023-08-08T02:24:37;15.40;99.90
46336;DHT22;31365;48.858;8.530;2023-08-08T02:27:06;15.40;99.90
46336;DHT22;31365;48.858;8.530;2023-08-08T02:29:35;15.40;99.90
46336;DHT22;31365;48.858;8.530;2023-08-08T02:32:05;15.40;99.90
46336;DHT22;31365;48.858;8.530;2023-08-08T02:34:34;15.50;99.90
46336;DHT22;31365;48.858;8.530;2023-08-08T02:37:03;15.40;99.90
46336;DHT22;31365;48.858;8.530;2023-08-08T02:39:32;15.50;99.90
46336;DHT22;31365;48.858;8.530;2023-08-08T02:42:01;15.40;99.90
46336;DHT22;31365;48.858;8.530;2023-08-08T02:44:29;15.40;99.90
46336;DHT22;31365;48.858;8.530;2023-08-08T02:46:58;15.50;99.90
46336;DHT22;31365;48.858;8.530;2023-08-08T02:49:28;15.50;99.90
46336;DHT22;31365;48.858;8.530;2023-08-08T02:51:56;15.60;99.90
46336;DHT22;31365;48.858;8.530;2023-08-08T02:54:27;15.60;99.90
46336;DHT22;31365;48.858;8.530;2023-08-08T02:56:56;15.70;99.90
46336;DHT22;31365;48.858;8.530;2023-08-08T02:59:24;15.70;99.90
46336;DHT22;31365;48.858;8.530;2023-08-08T03:01:53;15.70;99.90
46336;DHT22;31365;48.858;8.530;2023-08-08T03:04:21;15.70;99.90
46336;DHT22;31365;48.858;8.530;2023-08-08T03:06:51;15.70;99.90
46336;DHT22;31365;48.858;8.530;2023-08-08T03:09:20;15.70;99.90
46336;DHT22;31365;48.858;8.530;2023-08-08T03:11:49;15.80;99.90
46336;DHT22;31365;48.858;8.530;2023-08-08T03:14:17;15.80;99.90
46336;DHT22;31365;48.858;8.530;2023-08-08T03:16:46;15.80;99.90
46336;DHT22;31365;48.858;8.530;2023-08-08T03:19:15;15.80;99.90
46336;DHT22;31365;48.858;8.530;2023-08-08T03:21:43;15.80;99.90
46336;DHT22;31365;48.858;8.530;2023-08-08T03:24:13;15.80;99.90
46336;DHT22;31365;48.858;8.530;2023-08-08T03:26:42;15.70;99.90
46336;DHT22;31365;48.858;8.530;2023-08-08T03:29:11;15.70;99.90
46336;DHT22;31365;48.858;8.530;2023-08-08T03:31:44;15.60;99.90
46336;DHT22;31365;48.858;8.530;2023-08-08T03:34:13;15.60;99.90
46336;DHT22;31365;48.858;8.530;2023-08-08T03:36:41;15.60;99.90
46336;DHT22;31365;48.858;8.530;2023-08-08T03:39:10;15.60;99.90
46336;DHT22;31365;48.858;8.530;2023-08-08T03:41:40;15.50;99.90
46336;DHT22;31365;48.858;8.530;2023-08-08T03:44:08;15.50;99.90
46336;DHT22;31365;48.858;8.530;2023-08-08T03:46:40;15.50;99.90
46336;DHT22;31365;48.858;8.530;2023-08-08T03:49:09;15.50;99.90
46336;DHT22;31365;48.858;8.530;2023-08-08T03:51:37;15.50;99.90
46336;DHT22;31365;48.858;8.530;2023-08-08T03:54:05;15.40;99.90
46336;DHT22;31365;48.858;8.530;2023-08-08T03:56:34;15.50;99.90
46336;DHT22;31365;48.858;8.530;2023-08-08T03:59:04;15.50;99.90
46336;DHT22;31365;48.858;8.530;2023-08-08T04:01:32;15.50;99.90
46336;DHT22;31365;48.858;8.530;2023-08-08T04:04:01;15.40;99.90
46336;DHT22;31365;48.858;8.530;2023-08-08T04:06:29;15.40;99.90
46336;DHT22;31365;48.858;8.530;2023-08-08T04:08:57;15.50;99.90
46336;DHT22;31365;48.858;8.530;2023-08-08T04:11:27;15.40;99.90
46336;DHT22;31365;48.858;8.530;2023-08-08T04:13:56;15.40;99.90
46336;DHT22;31365;48.858;8.530;2023-08-08T04:16:25;15.30;99.90
46336;DHT22;31365;48.858;8.530;2023-08-08T04:18:53;15.30;99.90
46336;DHT22;31365;48.858;8.530;2023-08-08T04:21:22;15.30;99.90
46336;DHT22;31365;48.858;8.530;2023-08-08T04:23:51;15.20;99.90
46336;DHT22;31365;48.858;8.530;2023-08-08T04:26:20;15.20;99.90
46336;DHT22;31365;48.858;8.530;2023-08-08T04:28:48;15.20;99.90
46336;DHT22;31365;48.858;8.530;2023-08-08T04:31:16;15.20;99.90
46336;DHT22;31365;48.858;8.530;2023-08-08T04:33:46;15.20;99.90
46336;DHT22;31365;48.858;8.530;2023-08-08T04:36:14;15.20;99.90
46336;DHT22;31365;48.858;8.530;2023-08-08T04:38:43;15.20;99.90
46336;DHT22;31365;48.858;8.530;2023-08-08T04:41:11;15.20;99.90
46336;DHT22;31365;48.858;8.530;2023-08-08T04:43:40;15.20;99.90
46336;DHT22;31365;48.858;8.530;2023-08-08T04:46:08;15.20;99.90
46336;DHT22;31365;48.858;8.530;2023-08-08T04:48:36;15.20;99.90
46336;DHT22;31365;48.858;8.530;2023-08-08T04:51:08;15.10;99.90
46336;DHT22;31365;48.858;8.530;2023-08-08T04:53:37;15.10;99.90
46336;DHT22;31365;48.858;8.530;2023-08-08T04:56:05;15.10;99.90
46336;DHT22;31365;48.858;8.530;2023-08-08T04:58:33;15.00;99.90
46336;DHT22;31365;48.858;8.530;2023-08-08T05:01:02;15.10;99.90
46336;DHT22;31365;48.858;8.530;2023-08-08T05:03:30;15.10;99.90
46336;DHT22;31365;48.858;8.530;2023-08-08T05:05:58;15.10;99.90
46336;DHT22;31365;48.858;8.530;2023-08-08T05:08:28;15.10;99.90
46336;DHT22;31365;48.858;8.530;2023-08-08T05:10:57;15.10;99.90
46336;DHT22;31365;48.858;8.530;2023-08-08T05:13:26;15.20;99.90
46336;DHT22;31365;48.858;8.530;2023-08-08T05:15:54;15.20;99.90
46336;DHT22;31365;48.858;8.530;2023-08-08T05:18:22;15.30;99.90
46336;DHT22;31365;48.858;8.530;2023-08-08T05:20:50;15.30;99.90
46336;DHT22;31365;48.858;8.530;2023-08-08T05:23:19;15.40;99.90
46336;DHT22;31365;48.858;8.530;2023-08-08T05:25:48;15.50;99.90
46336;DHT22;31365;48.858;8.530;2023-08-08T05:28:17;15.50;99.90
46336;DHT22;31365;48.858;8.530;2023-08-08T05:30:45;15.50;99.90
46336;DHT22;31365;48.858;8.530;2023-08-08T05:33:14;15.60;99.90
46336;DHT22;31365;48.858;8.530;2023-08-08T05:35:42;15.50;99.90
46336;DHT22;31365;48.858;8.530;2023-08-08T05:38:10;15.50;99.90
46336;DHT22;31365;48.858;8.530;2023-08-08T05:40:38;15.50;99.90
46336;DHT22;31365;48.858;8.530;2023-08-08T05:43:08;15.60;99.90
46336;DHT22;31365;48.858;8.530;2023-08-08T05:45:36;15.60;99.90
46336;DHT22;31365;48.858;8.530;2023-08-08T05:48:05;15.60;99.90
46336;DHT22;31365;48.858;8.530;2023-08-08T05:50:36;15.70;99.90
46336;DHT22;31365;48.858;8.530;2023-08-08T05:53:05;15.70;99.90
46336;DHT22;31365;48.858;8.530;2023-08-08T05:55:34;15.70;99.90
46336;DHT22;31365;48.858;8.530;2023-08-08T05:58:02;15.90;99.90
46336;DHT22;31365;48.858;8.530;2023-08-08T06:00:32;15.90;99.90
46336;DHT22;31365;48.858;8.530;2023-08-08T06:03:01;15.90;99.90
46336;DHT22;31365;48.858;8.530;2023-08-08T06:05:29;16.00;99.90
46336;DHT22;31365;48.858;8.530;2023-08-08T06:07:58;16.10;99.90
46336;DHT22;31365;48.858;8.530;2023-08-08T06:10:27;16.20;99.90
46336;DHT22;31365;48.858;8.530;2023-08-08T06:12:56;16.20;99.90
46336;DHT22;31365;48.858;8.530;2023-08-08T06:15:24;16.30;99.90
46336;DHT22;31365;48.858;8.530;2023-08-08T06:17:53;16.30;99.90
46336;DHT22;31365;48.858;8.530;2023-08-08T06:20:22;16.30;99.90
46336;DHT22;31365;48.858;8.530;2023-08-08T06:22:51;16.40;99.90
46336;DHT22;31365;48.858;8.530;2023-08-08T06:25:20;16.50;99.90
46336;DHT22;31365;48.858;8.530;2023-08-08T06:27:48;16.60;99.90
46336;DHT22;31365;48.858;8.530;2023-08-08T06:30:17;16.70;99.90
46336;DHT22;31365;48.858;8.530;2023-08-08T06:32:45;16.80;99.90
46336;DHT22;31365;48.858;8.530;2023-08-08T06:35:15;16.80;99.90
46336;DHT22;31365;48.858;8.530;2023-08-08T06:37:44;16.90;99.90
46336;DHT22;31365;48.858;8.530;2023-08-08T06:40:13;17.00;99.90
46336;DHT22;31365;48.858;8.530;2023-08-08T06:42:41;16.90;99.90
46336;DHT22;31365;48.858;8.530;2023-08-08T06:45:09;16.70;99.90
46336;DHT22;31365;48.858;8.530;2023-08-08T06:47:37;16.80;99.90
46336;DHT22;31365;48.858;8.530;2023-08-08T06:50:07;16.80;99.90
46336;DHT22;31365;48.858;8.530;2023-08-08T06:52:38;16.80;99.90
46336;DHT22;31365;48.858;8.530;2023-08-08T06:55:07;16.90;99.90
46336;DHT22;31365;48.858;8.530;2023-08-08T06:57:35;16.80;99.90
46336;DHT22;31365;48.858;8.530;2023-08-08T07:00:04;16.80;99.90
46336;DHT22;31365;48.858;8.530;2023-08-08T07:02:35;16.80;99.90
46336;DHT22;31365;48.858;8.530;2023-08-08T07:05:03;16.80;99.90
46336;DHT22;31365;48.858;8.530;2023-08-08T07:07:33;16.80;99.90
46336;DHT22;31365;48.858;8.530;2023-08-08T07:10:04;16.90;99.90
46336;DHT22;31365;48.858;8.530;2023-08-08T07:12:55;16.90;99.90
46336;DHT22;31365;48.858;8.530;2023-08-08T07:15:23;17.00;99.90
46336;DHT22;31365;48.858;8.530;2023-08-08T07:17:52;17.00;99.90
46336;DHT22;31365;48.858;8.530;2023-08-08T07:20:20;17.00;99.90
46336;DHT22;31365;48.858;8.530;2023-08-08T07:22:49;17.00;99.90
46336;DHT22;31365;48.858;8.530;2023-08-08T07:25:19;17.10;99.90
46336;DHT22;31365;48.858;8.530;2023-08-08T07:27:47;17.20;99.90
46336;DHT22;31365;48.858;8.530;2023-08-08T07:30:15;17.30;99.90
46336;DHT22;31365;48.858;8.530;2023-08-08T07:32:43;17.30;99.90
46336;DHT22;31365;48.858;8.530;2023-08-08T07:35:12;17.30;99.90
46336;DHT22;31365;48.858;8.530;2023-08-08T07:37:42;17.40;99.90
46336;DHT22;31365;48.858;8.530;2023-08-08T07:40:14;17.40;99.90
46336;DHT22;31365;48.858;8.530;2023-08-08T07:42:45;17.40;99.90
46336;DHT22;31365;48.858;8.530;2023-08-08T07:45:15;17.50;99.90
46336;DHT22;31365;48.858;8.530;2023-08-08T07:47:43;17.60;99.90
46336;DHT22;31365;48.858;8.530;2023-08-08T07:50:12;17.70;99.90
46336;DHT22;31365;48.858;8.530;2023-08-08T07:52:40;17.80;99.90
46336;DHT22;31365;48.858;8.530;2023-08-08T07:55:09;17.80;99.90
46336;DHT22;31365;48.858;8.530;2023-08-08T07:57:37;17.80;99.90
46336;DHT22;31365;48.858;8.530;2023-08-08T08:00:09;17.90;99.90
46336;DHT22;31365;48.858;8.530;2023-08-08T08:03:01;18.00;99.90
46336;DHT22;31365;48.858;8.530;2023-08-08T08:05:30;18.00;99.90
46336;DHT22;31365;48.858;8.530;2023-08-08T08:07:59;17.90;99.90
46336;DHT22;31365;48.858;8.530;2023-08-08T08:10:27;17.80;99.90
46336;DHT22;31365;48.858;8.530;2023-08-08T08:12:55;17.90;99.90
46336;DHT22;31365;48.858;8.530;2023-08-08T08:15:26;17.90;99.90
46336;DHT22;31365;48.858;8.530;2023-08-08T08:17:54;18.00;99.90
46336;DHT22;31365;48.858;8.530;2023-08-08T08:20:23;18.10;99.90
46336;DHT22;31365;48.858;8.530;2023-08-08T08:22:54;18.10;99.90
46336;DHT22;31365;48.858;8.530;2023-08-08T08:25:25;18.20;99.90
46336;DHT22;31365;48.858;8.530;2023-08-08T08:27:55;18.30;99.90
46336;DHT22;31365;48.858;8.530;2023-08-08T08:30:23;18.50;99.90
46336;DHT22;31365;48.858;8.530;2023-08-08T08:32:54;18.50;99.90
46336;DHT22;31365;48.858;8.530;2023-08-08T08:35:24;18.50;99.90
46336;DHT22;31365;48.858;8.530;2023-08-08T08:37:53;18.50;99.90
46336;DHT22;31365;48.858;8.530;2023-08-08T08:40:43;18.40;99.90
46336;DHT22;31365;48.858;8.530;2023-08-08T08:43:15;18.40;99.90
46336;DHT22;31365;48.858;8.530;2023-08-08T08:45:50;18.50;99.90
46336;DHT22;31365;48.858;8.530;2023-08-08T08:48:21;18.80;99.90
46336;DHT22;31365;48.858;8.530;2023-08-08T08:50:51;19.00;99.90
46336;DHT22;31365;48.858;8.530;2023-08-08T08:53:20;19.00;99.90
46336;DHT22;31365;48.858;8.530;2023-08-08T08:55:50;19.10;99.90
46336;DHT22;31365;48.858;8.530;2023-08-08T08:58:21;19.10;99.90
46336;DHT22;31365;48.858;8.530;2023-08-08T09:00:51;19.20;99.90
46336;DHT22;31365;48.858;8.530;2023-08-08T09:03:21;19.10;99.90
46336;DHT22;31365;48.858;8.530;2023-08-08T09:05:50;19.10;99.90
46336;DHT22;31365;48.858;8.530;2023-08-08T09:08:22;19.00;99.90
46336;DHT22;31365;48.858;8.530;2023-08-08T09:10:50;19.00;99.90
46336;DHT22;31365;48.858;8.530;2023-08-08T09:13:40;19.00;99.90
46336;DHT22;31365;48.858;8.530;2023-08-08T09:16:08;19.20;99.90
46336;DHT22;31365;48.858;8.530;2023-08-08T09:18:43;19.00;99.90
46336;DHT22;31365;48.858;8.530;2023-08-08T09:21:13;19.00;99.90
46336;DHT22;31365;48.858;8.530;2023-08-08T09:23:43;19.00;99.90
46336;DHT22;31365;48.858;8.530;2023-08-08T09:26:13;19.00;99.90
46336;DHT22;31365;48.858;8.530;2023-08-08T09:28:43;19.10;99.90
46336;DHT22;31365;48.858;8.530;2023-08-08T09:31:34;19.20;99.90
46336;DHT22;31365;48.858;8.530;2023-08-08T09:34:05;19.20;99.90
46336;DHT22;31365;48.858;8.530;2023-08-08T09:36:34;19.20;99.90
46336;DHT22;31365;48.858;8.530;2023-08-08T09:39:04;19.20;99.90
46336;DHT22;31365;48.858;8.530;2023-08-08T09:41:33;19.20;99.90
46336;DHT22;31365;48.858;8.530;2023-08-08T09:44:01;19.30;99.90
46336;DHT22;31365;48.858;8.530;2023-08-08T09:46:30;19.20;99.90
46336;DHT22;31365;48.858;8.530;2023-08-08T09:48:59;19.10;99.90
46336;DHT22;31365;48.858;8.530;2023-08-08T09:51:31;19.30;99.90
46336;DHT22;31365;48.858;8.530;2023-08-08T09:54:00;19.50;99.90
46336;DHT22;31365;48.858;8.530;2023-08-08T09:56:33;19.50;99.90
46336;DHT22;31365;48.858;8.530;2023-08-08T09:59:02;19.60;99.90
46336;DHT22;31365;48.858;8.530;2023-08-08T10:01:33;19.60;99.90
46336;DHT22;31365;48.858;8.530;2023-08-08T10:04:03;19.70;99.90
46336;DHT22;31365;48.858;8.530;2023-08-08T10:06:34;19.80;99.90
46336;DHT22;31365;48.858;8.530;2023-08-08T10:09:03;19.80;99.90
46336;DHT22;31365;48.858;8.530;2023-08-08T10:11:31;19.80;99.90
46336;DHT22;31365;48.858;8.530;2023-08-08T10:14:02;19.70;99.90
46336;DHT22;31365;48.858;8.530;2023-08-08T10:16:32;19.80;99.90
46336;DHT22;31365;48.858;8.530;2023-08-08T10:19:02;19.80;99.90
46336;DHT22;31365;48.858;8.530;2023-08-08T10:21:34;19.80;99.90
46336;DHT22;31365;48.858;8.530;2023-08-08T10:24:05;19.70;99.90
46336;DHT22;31365;48.858;8.530;2023-08-08T10:29:21;19.70;99.90
46336;DHT22;31365;48.858;8.530;2023-08-08T10:31:52;19.70;99.90
46336;DHT22;31365;48.858;8.530;2023-08-08T10:34:27;19.90;99.90
46336;DHT22;31365;48.858;8.530;2023-08-08T10:37:08;20.10;99.90
46336;DHT22;31365;48.858;8.530;2023-08-08T10:39:50;20.40;99.90
46336;DHT22;31365;48.858;8.530;2023-08-08T10:42:20;20.60;99.90
46336;DHT22;31365;48.858;8.530;2023-08-08T10:44:51;20.50;99.90
46336;DHT22;31365;48.858;8.530;2023-08-08T10:47:22;20.50;99.90
46336;DHT22;31365;48.858;8.530;2023-08-08T10:49:59;20.40;99.90
46336;DHT22;31365;48.858;8.530;2023-08-08T10:52:32;20.20;99.90
46336;DHT22;31365;48.858;8.530;2023-08-08T10:55:02;20.10;99.90
46336;DHT22;31365;48.858;8.530;2023-08-08T10:57:31;20.20;99.90
46336;DHT22;31365;48.858;8.530;2023-08-08T11:00:17;20.40;99.90
46336;DHT22;31365;48.858;8.530;2023-08-08T11:02:46;20.80;99.90
46336;DHT22;31365;48.858;8.530;2023-08-08T11:05:15;21.00;99.90
46336;DHT22;31365;48.858;8.530;2023-08-08T11:07:45;21.30;99.90
46336;DHT22;31365;48.858;8.530;2023-08-08T11:10:14;21.40;99.90
46336;DHT22;31365;48.858;8.530;2023-08-08T11:12:44;21.20;99.90
46336;DHT22;31365;48.858;8.530;2023-08-08T11:15:20;21.10;99.90
46336;DHT22;31365;48.858;8.530;2023-08-08T11:17:49;21.20;99.90
46336;DHT22;31365;48.858;8.530;2023-08-08T11:20:19;21.60;99.90
46336;DHT22;31365;48.858;8.530;2023-08-08T11:22:52;21.80;99.90
46336;DHT22;31365;48.858;8.530;2023-08-08T11:25:21;22.40;99.90
46336;DHT22;31365;48.858;8.530;2023-08-08T11:27:51;22.90;99.90
46336;DHT22;31365;48.858;8.530;2023-08-08T11:30:20;23.50;99.90
46336;DHT22;31365;48.858;8.530;2023-08-08T11:32:50;24.00;99.90
46336;DHT22;31365;48.858;8.530;2023-08-08T11:35:22;24.10;99.90
46336;DHT22;31365;48.858;8.530;2023-08-08T11:37:54;24.30;99.90
46336;DHT22;31365;48.858;8.530;2023-08-08T11:40:26;24.50;99.90
46336;DHT22;31365;48.858;8.530;2023-08-08T11:42:55;24.80;99.90
46336;DHT22;31365;48.858;8.530;2023-08-08T11:45:25;24.90;99.90
46336;DHT22;31365;48.858;8.530;2023-08-08T11:47:54;25.40;99.90
46336;DHT22;31365;48.858;8.530;2023-08-08T11:50:24;26.10;99.90
46336;DHT22;31365;48.858;8.530;2023-08-08T11:52:55;25.60;99.90
46336;DHT22;31365;48.858;8.530;2023-08-08T11:55:27;25.50;99.90
46336;DHT22;31365;48.858;8.530;2023-08-08T11:57:56;25.20;99.90
46336;DHT22;31365;48.858;8.530;2023-08-08T12:00:28;24.70;99.90
46336;DHT22;31365;48.858;8.530;2023-08-08T12:02:59;23.80;99.90
46336;DHT22;31365;48.858;8.530;2023-08-08T12:05:36;23.10;99.90
46336;DHT22;31365;48.858;8.530;2023-08-08T12:08:07;22.70;99.90
46336;DHT22;31365;48.858;8.530;2023-08-08T12:10:36;22.60;99.90
46336;DHT22;31365;48.858;8.530;2023-08-08T12:13:07;22.90;99.90
46336;DHT22;31365;48.858;8.530;2023-08-08T12:15:36;23.60;99.90
46336;DHT22;31365;48.858;8.530;2023-08-08T12:18:05;24.20;99.90
46336;DHT22;31365;48.858;8.530;2023-08-08T12:20:33;24.40;99.90
46336;DHT22;31365;48.858;8.530;2023-08-08T12:23:01;24.70;99.90
46336;DHT22;31365;48.858;8.530;2023-08-08T12:25:31;25.00;98.70
46336;DHT22;31365;48.858;8.530;2023-08-08T12:28:01;25.30;97.10
46336;DHT22;31365;48.858;8.530;2023-08-08T12:30:29;26.20;97.10
46336;DHT22;31365;48.858;8.530;2023-08-08T12:32:58;27.20;97.20
46336;DHT22;31365;48.858;8.530;2023-08-08T12:35:26;27.70;96.30
46336;DHT22;31365;48.858;8.530;2023-08-08T12:37:54;28.10;95.90
46336;DHT22;31365;48.858;8.530;2023-08-08T12:40:22;27.70;96.10
46336;DHT22;31365;48.858;8.530;2023-08-08T12:42:53;27.90;96.20
46336;DHT22;31365;48.858;8.530;2023-08-08T12:45:22;27.80;94.60
46336;DHT22;31365;48.858;8.530;2023-08-08T12:47:50;28.30;94.90
46336;DHT22;31365;48.858;8.530;2023-08-08T12:50:19;29.40;93.90
46336;DHT22;31365;48.858;8.530;2023-08-08T12:52:47;29.40;93.40
46336;DHT22;31365;48.858;8.530;2023-08-08T12:55:16;30.00;93.80
46336;DHT22;31365;48.858;8.530;2023-08-08T12:57:45;29.60;92.20
46336;DHT22;31365;48.858;8.530;2023-08-08T13:00:15;29.50;92.80
46336;DHT22;31365;48.858;8.530;2023-08-08T13:02:44;29.40;92.30
46336;DHT22;31365;48.858;8.530;2023-08-08T13:05:13;29.20;92.00
46336;DHT22;31365;48.858;8.530;2023-08-08T13:07:41;29.60;91.70
46336;DHT22;31365;48.858;8.530;2023-08-08T13:10:09;29.40;91.80
46336;DHT22;31365;48.858;8.530;2023-08-08T13:12:38;30.00;91.60
46336;DHT22;31365;48.858;8.530;2023-08-08T13:15:07;30.00;91.10
46336;DHT22;31365;48.858;8.530;2023-08-08T13:17:37;29.70;90.50
46336;DHT22;31365;48.858;8.530;2023-08-08T13:20:06;29.40;90.40
46336;DHT22;31365;48.858;8.530;2023-08-08T13:22:35;28.60;90.70
46336;DHT22;31365;48.858;8.530;2023-08-08T13:25:04;28.60;91.50
46336;DHT22;31365;48.858;8.530;2023-08-08T13:27:33;28.50;91.40
46336;DHT22;31365;48.858;8.530;2023-08-08T13:30:02;28.50;91.10
46336;DHT22;31365;48.858;8.530;2023-08-08T13:32:30;28.70;91.20
46336;DHT22;31365;48.858;8.530;2023-08-08T13:35:05;29.00;91.00
46336;DHT22;31365;48.858;8.530;2023-08-08T13:37:34;29.70;91.10
46336;DHT22;31365;48.858;8.530;2023-08-08T13:40:02;30.40;90.40
46336;DHT22;31365;48.858;8.530;2023-08-08T13:42:30;30.60;88.40
46336;DHT22;31365;48.858;8.530;2023-08-08T13:44:59;30.50;89.20
46336;DHT22;31365;48.858;8.530;2023-08-08T13:47:27;30.30;88.80
46336;DHT22;31365;48.858;8.530;2023-08-08T13:49:55;30.40;89.70
46336;DHT22;31365;48.858;8.530;2023-08-08T13:52:25;30.90;89.50
46336;DHT22;31365;48.858;8.530;2023-08-08T13:54:53;30.30;86.10
46336;DHT22;31365;48.858;8.530;2023-08-08T13:57:22;29.50;86.40
46336;DHT22;31365;48.858;8.530;2023-08-08T13:59:50;28.70;88.10
46336;DHT22;31365;48.858;8.530;2023-08-08T14:02:18;28.10;89.20
46336;DHT22;31365;48.858;8.530;2023-08-08T14:04:46;27.60;90.40
46336;DHT22;31365;48.858;8.530;2023-08-08T14:07:15;27.00;90.80
46336;DHT22;31365;48.858;8.530;2023-08-08T14:09:44;26.50;91.50
46336;DHT22;31365;48.858;8.530;2023-08-08T14:12:12;26.00;92.50
46336;DHT22;31365;48.858;8.530;2023-08-08T14:14:41;26.20;92.80
46336;DHT22;31365;48.858;8.530;2023-08-08T14:17:09;27.00;92.40
46336;DHT22;31365;48.858;8.530;2023-08-08T14:19:38;27.20;91.60
46336;DHT22;31365;48.858;8.530;2023-08-08T14:22:06;27.60;91.80
46336;DHT22;31365;48.858;8.530;2023-08-08T14:24:34;27.70;91.40
46336;DHT22;31365;48.858;8.530;2023-08-08T14:27:04;27.10;91.20
46336;DHT22;31365;48.858;8.530;2023-08-08T14:29:32;26.80;91.60
46336;DHT22;31365;48.858;8.530;2023-08-08T14:32:01;26.90;91.70
46336;DHT22;31365;48.858;8.530;2023-08-08T14:34:29;26.50;90.80
46336;DHT22;31365;48.858;8.530;2023-08-08T14:36:59;26.00;91.50
46336;DHT22;31365;48.858;8.530;2023-08-08T14:39:29;25.20;92.20
46336;DHT22;31365;48.858;8.530;2023-08-08T14:41:58;24.70;93.30
46336;DHT22;31365;48.858;8.530;2023-08-08T14:44:27;24.40;93.70
46336;DHT22;31365;48.858;8.530;2023-08-08T14:46:56;24.00;94.10
46336;DHT22;31365;48.858;8.530;2023-08-08T14:49:24;23.60;94.70
46336;DHT22;31365;48.858;8.530;2023-08-08T14:51:54;23.20;95.60
46336;DHT22;31365;48.858;8.530;2023-08-08T14:54:22;23.20;95.90
46336;DHT22;31365;48.858;8.530;2023-08-08T14:56:50;23.10;96.00
46336;DHT22;31365;48.858;8.530;2023-08-08T14:59:18;23.00;96.30
46336;DHT22;31365;48.858;8.530;2023-08-08T15:01:48;23.00;95.90
46336;DHT22;31365;48.858;8.530;2023-08-08T15:04:16;23.20;96.50
46336;DHT22;31365;48.858;8.530;2023-08-08T15:06:44;23.50;96.70
46336;DHT22;31365;48.858;8.530;2023-08-08T15:09:12;23.60;96.10
46336;DHT22;31365;48.858;8.530;2023-08-08T15:11:41;23.90;96.30
46336;DHT22;31365;48.858;8.530;2023-08-08T15:14:10;24.50;95.60
46336;DHT22;31365;48.858;8.530;2023-08-08T15:16:38;24.50;95.60
46336;DHT22;31365;48.858;8.530;2023-08-08T15:19:07;24.20;95.80
46336;DHT22;31365;48.858;8.530;2023-08-08T15:21:36;24.10;95.20
46336;DHT22;31365;48.858;8.530;2023-08-08T15:24:06;23.90;95.50
46336;DHT22;31365;48.858;8.530;2023-08-08T15:26:35;23.60;95.90
46336;DHT22;31365;48.858;8.530;2023-08-08T15:29:03;23.20;96.10
46336;DHT22;31365;48.858;8.530;2023-08-08T15:31:31;23.30;96.10
46336;DHT22;31365;48.858;8.530;2023-08-08T15:34:00;23.40;95.60
46336;DHT22;31365;48.858;8.530;2023-08-08T15:36:30;23.60;95.30
46336;DHT22;31365;48.858;8.530;2023-08-08T15:38:58;23.60;95.20
46336;DHT22;31365;48.858;8.530;2023-08-08T15:41:27;23.60;95.20
46336;DHT22;31365;48.858;8.530;2023-08-08T15:43:55;23.50;95.50
46336;DHT22;31365;48.858;8.530;2023-08-08T15:46:23;23.30;96.00
46336;DHT22;31365;48.858;8.530;2023-08-08T15:48:52;23.30;95.60